createdAt,value
2022-11-04T00:00:08.569Z,99883.97
2022-11-04T00:02:34.973Z,99906.72
2022-11-04T00:05:01.458Z,99916.38
2022-11-04T00:07:46.513Z,99912.28
2022-11-04T00:10:12.934Z,99916.19
2022-11-04T00:12:39.366Z,99926.28
2022-11-04T00:15:41.398Z,99921.16
2022-11-04T00:18:07.866Z,99927.56
2022-11-04T00:20:53.235Z,99929.41
2022-11-04T00:23:38.029Z,99931.69
2022-11-04T00:26:22.935Z,99936.00
2022-11-04T00:28:52.950Z,99938.03
2022-11-04T00:31:37.857Z,99934.09
2022-11-04T00:34:04.245Z,99927.50
2022-11-04T00:36:30.574Z,99932.69
2022-11-04T00:38:57.114Z,99934.91
2022-11-04T00:41:27.053Z,99923.88
2022-11-04T00:43:55.583Z,99933.56
2022-11-04T00:46:22.465Z,99941.41
2022-11-04T00:48:48.964Z,99941.22
2022-11-04T00:51:15.609Z,99939.41
2022-11-04T00:53:42.445Z,99964.50
2022-11-04T00:56:10.045Z,99990.81
2022-11-04T00:58:36.479Z,100000.84
2022-11-04T01:01:18.554Z,99995.75
2022-11-04T01:03:50.836Z,100003.16
2022-11-04T01:06:18.832Z,100009.19
2022-11-04T01:08:45.856Z,100013.50
2022-11-04T01:11:13.378Z,100010.88
2022-11-04T01:13:40.178Z,100014.75
2022-11-04T01:16:10.082Z,100019.09
2022-11-04T01:18:36.503Z,100020.09
2022-11-04T01:21:05.399Z,100024.66
2022-11-04T01:23:34.035Z,100021.38
2022-11-04T01:26:00.888Z,100028.78
2022-11-04T01:28:27.417Z,100024.91
2022-11-04T01:30:53.806Z,100030.03
2022-11-04T01:33:20.176Z,100028.22
2022-11-04T01:35:46.548Z,100027.41
2022-11-04T01:38:13.085Z,100025.78
2022-11-04T01:40:41.095Z,100027.22
2022-11-04T01:43:20.137Z,100032.56
2022-11-04T01:45:54.361Z,100037.28
2022-11-04T01:48:31.275Z,100030.72
2022-11-04T01:50:59.452Z,100024.78
2022-11-04T01:53:32.947Z,100028.47
2022-11-04T01:56:01.881Z,100031.72
2022-11-04T01:58:32.475Z,100029.28
2022-11-04T02:00:59.081Z,100032.97
2022-11-04T02:03:38.666Z,100036.22
2022-11-04T02:06:06.333Z,100038.88
2022-11-04T02:08:34.246Z,100044.84
2022-11-04T02:11:02.817Z,100049.97
2022-11-04T02:13:32.741Z,100049.97
2022-11-04T02:16:07.970Z,100057.31
2022-11-04T02:18:40.312Z,100064.25
2022-11-04T02:21:37.907Z,100071.25
2022-11-04T02:24:32.101Z,100075.97
2022-11-04T02:27:21.326Z,100077.16
2022-11-04T02:30:04.346Z,100074.06
2022-11-04T02:32:55.275Z,100074.50
2022-11-04T02:35:30.452Z,100069.16
2022-11-04T02:38:08.081Z,100081.03
2022-11-04T02:40:49.609Z,100073.88
2022-11-04T02:43:36.493Z,100078.59
2022-11-04T02:46:22.162Z,100068.16
2022-11-04T02:49:06.114Z,100066.31
2022-11-04T02:51:39.718Z,100071.28
2022-11-04T02:54:08.194Z,100058.16
2022-11-04T02:56:39.349Z,100060.22
2022-11-04T02:59:12.638Z,100092.47
2022-11-04T03:01:43.555Z,100068.41
2022-11-04T03:04:15.284Z,100103.34
2022-11-04T03:06:44.684Z,100113.41
2022-11-04T03:09:13.901Z,100122.63
2022-11-04T03:11:44.637Z,100103.34
2022-11-04T03:14:23.985Z,100121.81
2022-11-04T03:16:54.177Z,100119.34
2022-11-04T03:19:44.556Z,100127.34
2022-11-04T03:22:18.924Z,100120.19
2022-11-04T03:24:47.586Z,100124.06
2022-11-04T03:27:32.285Z,100111.56
2022-11-04T03:30:08.295Z,100115.06
2022-11-04T03:32:59.769Z,100120.97
2022-11-04T03:35:27.856Z,100125.31
2022-11-04T03:37:54.554Z,100127.75
2022-11-04T03:40:22.317Z,100129.59
2022-11-04T03:43:08.871Z,100131.66
2022-11-04T03:45:35.861Z,100131.63
2022-11-04T03:48:02.538Z,100134.09
2022-11-04T03:50:31.615Z,100139.22
2022-11-04T03:52:59.079Z,100138.78
2022-11-04T03:55:41.634Z,100123.16
2022-11-04T03:58:21.430Z,100145.50
2022-11-04T04:00:55.950Z,100147.19
2022-11-04T04:03:30.952Z,100148.19
2022-11-04T04:06:02.535Z,100154.56
2022-11-04T04:08:43.791Z,100156.47
2022-11-04T04:11:17.638Z,100158.72
2022-11-04T04:14:13.275Z,100148.06
2022-11-04T04:16:45.840Z,100152.97
2022-11-04T04:19:18.065Z,100151.94
2022-11-04T04:22:00.845Z,100160.97
2022-11-04T04:24:54.271Z,100152.34
2022-11-04T04:27:32.150Z,100181.09
2022-11-04T04:30:08.518Z,100182.72
2022-11-04T04:32:39.570Z,100179.22
2022-11-04T04:35:27.296Z,100183.75
2022-11-04T04:38:41.516Z,100192.34
2022-11-04T04:41:40.153Z,100194.78
2022-11-04T04:44:37.085Z,100188.38
2022-11-04T04:47:03.945Z,100186.50
2022-11-04T04:49:35.084Z,100188.56
2022-11-04T04:52:04.373Z,100191.00
2022-11-04T04:54:30.958Z,100191.66
2022-11-04T04:56:57.430Z,100188.97
2022-11-04T04:59:23.829Z,100199.31
2022-11-04T05:01:50.332Z,100187.84
2022-11-04T05:04:16.856Z,100199.13
2022-11-04T05:06:43.225Z,100196.25
2022-11-04T05:09:09.579Z,100192.56
2022-11-04T05:11:35.968Z,100187.84
2022-11-04T05:14:02.353Z,100184.16
2022-11-04T05:16:29.154Z,100182.09
2022-11-04T05:18:55.724Z,100180.06
2022-11-04T05:21:22.109Z,100189.53
2022-11-04T05:23:48.479Z,100188.06
2022-11-04T05:26:15.165Z,100190.31
2022-11-04T05:28:41.607Z,100186.44
2022-11-04T05:31:08.631Z,100192.56
2022-11-04T05:33:34.996Z,100195.00
2022-11-04T05:36:07.599Z,100209.16
2022-11-04T05:38:34.233Z,100205.00
2022-11-04T05:41:00.798Z,100209.31
2022-11-04T05:43:27.707Z,100217.69
2022-11-04T05:45:54.483Z,100217.09
2022-11-04T05:48:21.023Z,100227.53
2022-11-04T05:50:47.502Z,100222.56
2022-11-04T05:53:13.908Z,100224.34
2022-11-04T05:55:40.374Z,100234.63
2022-11-04T05:58:06.991Z,100233.59
2022-11-04T06:00:33.527Z,100233.97
2022-11-04T06:03:00.025Z,100227.75
2022-11-04T06:05:27.826Z,100239.28
2022-11-04T06:07:55.348Z,100232.50
2022-11-04T06:10:22.000Z,100239.53
2022-11-04T06:12:48.869Z,100243.44
2022-11-04T06:15:15.264Z,100252.22
2022-11-04T06:17:41.699Z,100252.84
2022-11-04T06:20:08.647Z,100258.09
2022-11-04T06:22:34.985Z,100261.41
2022-11-04T06:25:01.447Z,100263.44
2022-11-04T06:27:28.935Z,100274.47
2022-11-04T06:29:55.352Z,100278.38
2022-11-04T06:32:21.852Z,100275.22
2022-11-04T06:34:48.211Z,100270.34
2022-11-04T06:37:14.596Z,100275.06
2022-11-04T06:39:41.022Z,100261.72
2022-11-04T06:42:07.500Z,100273.53
2022-11-04T06:44:34.519Z,100274.41
2022-11-04T06:47:01.759Z,100264.19
2022-11-04T06:49:28.460Z,100271.75
2022-11-04T06:51:54.922Z,100265.19
2022-11-04T06:54:21.286Z,100270.41
2022-11-04T06:56:49.032Z,100273.91
2022-11-04T06:59:17.626Z,100270.59
2022-11-04T07:01:45.096Z,100291.34
2022-11-04T07:04:11.666Z,100301.59
2022-11-04T07:06:39.829Z,100305.31
2022-11-04T07:09:11.381Z,100314.38
2022-11-04T07:11:37.910Z,100317.59
2022-11-04T07:14:04.336Z,100319.03
2022-11-04T07:16:30.759Z,100324.19
2022-11-04T07:18:57.281Z,100334.50
2022-11-04T07:21:24.226Z,100352.38
2022-11-04T07:23:50.725Z,100357.09
2022-11-04T07:26:17.322Z,100353.16
2022-11-04T07:28:43.833Z,100354.16
2022-11-04T07:31:12.034Z,100354.09
2022-11-04T07:33:38.420Z,100355.16
2022-11-04T07:36:11.320Z,100361.59
2022-11-04T07:38:37.856Z,100363.69
2022-11-04T07:41:04.527Z,100369.63
2022-11-04T07:43:30.961Z,100367.44
2022-11-04T07:46:07.689Z,100375.06
2022-11-04T07:48:34.856Z,100386.78
2022-11-04T07:51:01.677Z,100383.75
2022-11-04T07:53:30.076Z,100367.44
2022-11-04T07:55:56.992Z,100385.38
2022-11-04T07:58:24.279Z,100389.72
2022-11-04T08:00:51.409Z,100395.91
2022-11-04T08:03:17.844Z,100399.63
2022-11-04T08:05:47.240Z,100399.22
2022-11-04T08:08:14.276Z,100400.06
2022-11-04T08:10:40.771Z,100401.91
2022-11-04T08:13:07.586Z,100398.47
2022-11-04T08:15:36.065Z,100413.69
2022-11-04T08:18:02.429Z,100425.00
2022-11-04T08:20:29.856Z,100415.38
2022-11-04T08:22:56.328Z,100414.38
2022-11-04T08:25:23.434Z,100415.00
2022-11-04T08:27:49.901Z,100422.41
2022-11-04T08:30:16.308Z,100414.78
2022-11-04T08:32:44.359Z,100417.06
2022-11-04T08:35:11.953Z,100423.81
2022-11-04T08:37:38.580Z,100436.13
2022-11-04T08:40:06.578Z,100441.47
2022-11-04T08:42:33.136Z,100431.44
2022-11-04T08:44:59.521Z,100439.66
2022-11-04T08:47:26.025Z,100438.88
2022-11-04T08:49:52.602Z,100438.69
2022-11-04T08:52:18.983Z,100451.63
2022-11-04T08:54:45.525Z,100443.03
2022-11-04T08:57:11.945Z,100448.16
2022-11-04T08:59:38.582Z,100429.66
2022-11-04T09:02:05.034Z,100446.53
2022-11-04T09:04:31.567Z,100444.47
2022-11-04T09:06:57.940Z,100440.78
2022-11-04T09:09:24.321Z,100460.66
2022-11-04T09:11:50.764Z,100459.22
2022-11-04T09:14:17.944Z,100461.09
2022-11-04T09:16:44.711Z,100455.22
2022-11-04T09:19:11.244Z,100439.97
2022-11-04T09:21:37.690Z,100434.00
2022-11-04T09:24:04.902Z,100417.94
2022-11-04T09:26:31.786Z,100434.63
2022-11-04T09:28:59.156Z,100435.75
2022-11-04T09:31:28.136Z,100436.19
2022-11-04T09:33:56.057Z,100440.28
2022-11-04T09:36:23.078Z,100445.38
2022-11-04T09:38:52.270Z,100423.19
2022-11-04T09:41:21.443Z,100449.25
2022-11-04T09:44:02.905Z,100450.56
2022-11-04T09:46:33.262Z,100451.09
2022-11-04T09:49:03.134Z,100468.53
2022-11-04T09:51:53.016Z,100484.66
2022-11-04T09:54:28.406Z,100491.81
2022-11-04T09:56:59.283Z,100486.09
2022-11-04T09:59:44.007Z,100505.09
2022-11-04T10:02:40.010Z,100507.56
2022-11-04T10:05:34.389Z,100518.41
2022-11-04T10:08:26.015Z,100523.03
2022-11-04T10:11:04.769Z,100526.19
2022-11-04T10:14:19.566Z,100531.59
2022-11-04T10:17:21.619Z,100550.00
2022-11-04T10:19:59.877Z,100564.00
2022-11-04T10:22:38.551Z,100554.09
2022-11-04T10:25:15.225Z,100571.13
2022-11-04T10:27:44.599Z,100566.84
2022-11-04T10:30:25.310Z,100579.22
2022-11-04T10:32:57.089Z,100579.22
2022-11-04T10:35:39.576Z,100586.63
2022-11-04T10:38:41.540Z,100574.06
2022-11-04T10:41:39.074Z,100596.94
2022-11-04T10:44:14.987Z,100585.19
2022-11-04T10:47:07.003Z,100588.69
2022-11-04T10:50:14.430Z,100596.09
2022-11-04T10:52:38.185Z,100609.69
2022-11-04T10:55:26.056Z,100607.22
2022-11-04T10:57:57.306Z,100597.34
2022-11-04T11:00:41.704Z,100596.72
2022-11-04T11:03:34.559Z,100609.25
2022-11-04T11:06:14.853Z,100615.44
2022-11-04T11:08:43.087Z,100619.34
2022-11-04T11:11:10.061Z,100629.03
2022-11-04T11:13:42.277Z,100630.25
2022-11-04T11:16:17.837Z,100639.31
2022-11-04T11:18:44.752Z,100653.50
2022-11-04T11:21:15.993Z,100661.72
2022-11-04T11:23:51.096Z,100665.22
2022-11-04T11:26:29.720Z,100679.00
2022-11-04T11:29:02.023Z,100685.13
2022-11-04T11:31:38.269Z,100682.41
2022-11-04T11:34:18.813Z,100678.47
2022-11-04T11:36:48.100Z,100688.28
2022-11-04T11:39:21.973Z,100683.53
2022-11-04T11:42:06.282Z,100670.44
2022-11-04T11:44:47.918Z,100696.13
2022-11-04T11:47:21.808Z,100699.50
2022-11-04T11:50:05.677Z,100700.47
2022-11-04T11:52:34.808Z,100714.84
2022-11-04T11:55:07.551Z,100721.53
2022-11-04T12:00:54.671Z,100696.91
2022-11-04T12:09:56.737Z,100714.66
2022-11-04T12:12:37.684Z,100724.78
2022-11-04T12:15:15.057Z,100732.31
2022-11-04T12:17:55.720Z,100716.69
2022-11-04T12:20:52.058Z,100731.97
2022-11-04T12:23:46.184Z,100751.13
2022-11-04T12:26:24.611Z,100755.22
2022-11-04T12:29:02.890Z,100745.78
2022-11-04T12:31:49.299Z,100741.38
2022-11-04T12:34:37.477Z,100750.66
2022-11-04T12:37:29.522Z,100744.50
2022-11-04T12:40:01.825Z,100741.63
2022-11-04T12:43:05.578Z,100735.38
2022-11-04T12:45:46.854Z,100749.31
2022-11-04T12:48:39.968Z,100742.56
2022-11-04T12:51:18.424Z,100751.03
2022-11-04T12:53:55.331Z,100750.22
2022-11-04T12:56:40.709Z,100748.78
2022-11-04T12:59:44.176Z,100761.41
2022-11-04T13:02:18.142Z,100760.97
2022-11-04T13:04:59.165Z,100766.94
2022-11-04T13:07:35.909Z,100762.47
2022-11-04T13:10:12.181Z,100771.69
2022-11-04T13:12:43.795Z,100761.50
2022-11-04T13:15:18.385Z,100774.50
2022-11-04T13:17:47.196Z,100776.16
2022-11-04T13:20:24.156Z,100796.00
2022-11-04T13:22:55.720Z,100793.06
2022-11-04T13:25:44.666Z,100801.91
2022-11-04T13:28:14.809Z,100800.31
2022-11-04T13:30:55.339Z,100797.88
2022-11-04T13:33:32.582Z,100796.56
2022-11-04T13:36:28.365Z,100810.22
2022-11-04T13:39:13.648Z,100812.69
2022-11-04T13:41:57.551Z,100813.91
2022-11-04T13:44:27.435Z,100815.78
2022-11-04T13:46:58.583Z,100818.50
2022-11-04T13:49:32.613Z,100822.25
2022-11-04T13:52:11.336Z,100812.34
2022-11-04T13:54:53.529Z,100827.84
2022-11-04T13:57:28.697Z,100833.00
2022-11-04T14:00:13.461Z,100835.47
2022-11-04T14:02:45.083Z,100838.53
2022-11-04T14:05:29.861Z,100841.00
2022-11-04T14:08:01.974Z,100841.41
2022-11-04T14:10:46.678Z,100843.44
2022-11-04T14:13:34.967Z,100852.09
2022-11-04T14:16:17.912Z,100858.63
2022-11-04T14:18:47.505Z,100857.00
2022-11-04T14:21:15.510Z,100862.34
2022-11-04T14:23:54.014Z,100854.28
2022-11-04T14:26:27.536Z,100853.63
2022-11-04T14:29:05.906Z,100860.63
2022-11-04T14:31:53.440Z,100861.41
2022-11-04T14:34:29.390Z,100867.38
2022-11-04T14:36:58.290Z,100869.03
2022-11-04T14:39:28.650Z,100865.97
2022-11-04T14:42:00.577Z,100870.06
2022-11-04T14:44:35.553Z,100883.16
2022-11-04T14:47:17.053Z,100893.03
2022-11-04T14:49:46.443Z,100899.19
2022-11-04T14:52:30.565Z,100901.81
2022-11-04T14:55:18.992Z,100898.91
2022-11-04T14:57:51.904Z,100893.50
2022-11-04T15:00:24.556Z,100888.97
2022-11-04T15:03:06.679Z,100894.31
2022-11-04T15:05:36.474Z,100874.47
2022-11-04T15:08:40.273Z,100901.50
2022-11-04T15:11:44.387Z,100905.63
2022-11-04T15:14:15.457Z,100906.47
2022-11-04T15:16:45.819Z,100866.78
2022-11-04T15:19:18.261Z,100892.84
2022-11-04T15:21:48.406Z,100883.94
2022-11-04T15:24:17.764Z,100898.44
2022-11-04T15:26:50.086Z,100901.75
2022-11-04T15:29:18.471Z,100908.34
2022-11-04T15:32:04.761Z,100906.91
2022-11-04T15:34:33.536Z,100907.53
2022-11-04T15:37:04.237Z,100894.56
2022-11-04T15:39:34.440Z,100909.63
2022-11-04T15:42:22.943Z,100911.53
2022-11-04T15:44:52.336Z,100894.81
2022-11-04T15:47:18.631Z,100925.34
2022-11-04T15:49:47.160Z,100928.19
2022-11-04T15:52:21.429Z,100930.88
2022-11-04T15:54:50.724Z,100928.19
2022-11-04T15:57:21.120Z,100931.06
2022-11-04T15:59:54.755Z,100936.78
2022-11-04T16:02:49.555Z,100920.47
2022-11-04T16:05:22.862Z,100929.91
2022-11-04T16:07:51.900Z,100931.69
2022-11-04T16:10:30.629Z,100938.06
2022-11-04T16:13:02.116Z,100948.94
2022-11-04T16:15:41.543Z,100945.81
2022-11-04T16:18:24.019Z,100947.84
2022-11-04T16:20:53.098Z,100960.16
2022-11-04T16:23:23.719Z,100972.06
2022-11-04T16:26:05.989Z,100964.44
2022-11-04T16:28:39.626Z,100980.53
2022-11-04T16:31:07.570Z,100981.97
2022-11-04T16:33:34.495Z,100985.69
2022-11-04T16:36:00.978Z,100973.19
2022-11-04T16:38:27.423Z,100982.94
2022-11-04T16:40:53.822Z,100987.81
2022-11-04T16:43:21.590Z,100991.22
2022-11-04T16:45:53.848Z,100986.47
2022-11-04T16:48:21.331Z,100988.66
2022-11-04T16:50:48.924Z,100991.34
2022-11-04T16:53:16.380Z,100994.19
2022-11-04T16:55:44.374Z,101002.84
2022-11-04T16:58:17.693Z,100998.09
2022-11-04T17:00:44.164Z,101011.63
2022-11-04T17:03:22.719Z,101009.47
2022-11-04T17:05:56.252Z,101012.81
2022-11-04T17:08:23.659Z,101024.59
2022-11-04T17:10:50.062Z,101020.63
2022-11-04T17:13:16.665Z,101025.75
2022-11-04T17:15:43.538Z,101028.81
2022-11-04T17:18:15.099Z,101042.97
2022-11-04T17:20:44.164Z,101038.50
2022-11-04T17:23:13.193Z,101037.28
2022-11-04T17:25:39.690Z,101032.78
2022-11-04T17:28:06.075Z,101031.75
2022-11-04T17:30:32.816Z,101047.06
2022-11-04T17:33:00.140Z,101053.66
2022-11-04T17:35:28.664Z,101052.38
2022-11-04T17:37:55.278Z,101018.88
2022-11-04T17:40:24.021Z,101042.53
2022-11-04T17:43:12.290Z,101051.19
2022-11-04T17:45:41.000Z,101063.34
2022-11-04T17:48:08.997Z,101061.94
2022-11-04T17:50:37.355Z,101067.84
2022-11-04T17:53:03.804Z,101053.84
2022-11-04T17:55:30.310Z,101071.31
2022-11-04T17:57:57.178Z,101079.84
2022-11-04T18:00:29.631Z,101076.91
2022-11-04T18:02:56.645Z,101080.25
2022-11-04T18:05:23.169Z,101093.22
2022-11-04T18:07:49.602Z,101074.66
2022-11-04T18:10:16.035Z,101089.75
2022-11-04T18:12:42.407Z,101095.28
2022-11-04T18:15:11.785Z,101101.22
2022-11-04T18:17:44.196Z,101102.91
2022-11-04T18:20:17.028Z,101112.56
2022-11-04T18:22:44.570Z,101113.56
2022-11-04T18:25:12.670Z,101126.63
2022-11-04T18:27:39.113Z,101119.31
2022-11-04T18:30:06.405Z,101129.50
2022-11-04T18:32:33.578Z,101132.31
2022-11-04T18:35:00.228Z,101137.06
2022-11-04T18:37:28.377Z,101148.44
2022-11-04T18:39:54.814Z,101141.97
2022-11-04T18:42:22.157Z,101152.31
2022-11-04T18:44:48.697Z,101154.50
2022-11-04T18:47:15.551Z,101155.22
2022-11-04T18:49:42.520Z,101160.44
2022-11-04T18:52:09.057Z,101162.25
2022-11-04T18:54:36.245Z,101155.44
2022-11-04T18:57:04.034Z,101159.97
2022-11-04T18:59:30.613Z,101147.34
2022-11-04T19:01:57.099Z,101159.50
2022-11-04T19:04:23.578Z,101165.97
2022-11-04T19:06:49.986Z,101155.19
2022-11-04T19:09:46.214Z,101150.72
2022-11-04T19:12:22.177Z,101167.34
2022-11-04T19:14:49.131Z,101160.69
2022-11-04T19:17:16.041Z,101157.50
2022-11-04T19:19:42.940Z,101165.81
2022-11-04T19:22:10.147Z,101152.50
2022-11-04T19:24:36.624Z,101154.44
2022-11-04T19:27:03.308Z,101162.19
2022-11-04T19:29:30.100Z,101164.50
2022-11-04T19:31:56.582Z,101169.38
2022-11-04T19:34:23.165Z,101170.38
2022-11-04T19:36:49.631Z,101183.53
2022-11-04T19:39:16.035Z,101181.69
2022-11-04T19:42:01.248Z,101176.00
2022-11-04T19:44:27.644Z,101180.97
2022-11-04T19:46:54.153Z,101166.88
2022-11-04T19:49:20.888Z,101192.97
2022-11-04T19:51:47.429Z,101187.09
2022-11-04T19:54:13.966Z,101179.75
2022-11-04T19:56:40.851Z,101193.03
2022-11-04T19:59:09.120Z,101187.03
2022-11-04T20:01:36.025Z,101195.50
2022-11-04T20:04:03.981Z,101198.16
2022-11-04T20:06:32.236Z,101203.84
2022-11-04T20:09:01.853Z,101206.34
2022-11-04T20:11:28.454Z,101199.41
2022-11-04T20:13:55.030Z,101211.38
2022-11-04T20:16:23.094Z,101224.34
2022-11-04T20:18:52.696Z,101226.34
2022-11-04T20:21:20.952Z,101234.53
2022-11-04T20:23:47.348Z,101226.59
2022-11-04T20:26:20.874Z,101224.91
2022-11-04T20:28:47.788Z,101235.22
2022-11-04T20:31:20.153Z,101230.06
2022-11-04T20:33:47.882Z,101235.06
2022-11-04T20:36:17.130Z,101231.75
2022-11-04T20:38:43.520Z,101229.19
2022-11-04T20:41:18.604Z,101236.50
2022-11-04T20:43:46.801Z,101232.47
2022-11-04T20:46:19.884Z,101212.53
2022-11-04T20:48:47.655Z,101234.47
2022-11-04T20:51:25.280Z,101220.50
2022-11-04T20:53:56.256Z,101248.28
2022-11-04T20:56:24.878Z,101257.78
2022-11-04T20:58:57.632Z,101262.28
2022-11-04T21:01:28.602Z,101274.59
2022-11-04T21:03:58.984Z,101264.75
2022-11-04T21:06:26.225Z,101269.56
2022-11-04T21:08:52.870Z,101269.88
2022-11-04T21:11:19.514Z,101263.34
2022-11-04T21:13:46.214Z,101259.53
2022-11-04T21:16:16.976Z,101273.78
2022-11-04T21:18:43.986Z,101282.75
2022-11-04T21:21:13.704Z,101282.94
2022-11-04T21:23:40.225Z,101261.81
2022-11-04T21:26:14.171Z,101288.09
2022-11-04T21:28:40.686Z,101284.75
2022-11-04T21:31:10.390Z,101295.25
2022-11-04T21:33:37.158Z,101280.56
2022-11-04T21:36:10.500Z,101284.38
2022-11-04T21:38:37.001Z,101288.22
2022-11-04T21:41:06.145Z,101302.69
2022-11-04T21:43:32.861Z,101296.00
2022-11-04T21:46:04.128Z,101296.00
2022-11-04T21:48:32.459Z,101292.19
2022-11-04T21:51:03.602Z,101306.19
2022-11-04T21:53:30.789Z,101303.88
2022-11-04T21:56:08.355Z,101307.53
2022-11-04T21:58:36.450Z,101309.38
2022-11-04T22:01:04.514Z,101319.94
2022-11-04T22:03:31.246Z,101313.47
2022-11-04T22:06:06.637Z,101297.69
2022-11-04T22:08:34.060Z,101309.13
2022-11-04T22:11:14.557Z,101296.69
2022-11-04T22:13:41.441Z,101301.19
2022-11-04T22:16:17.124Z,101309.19
2022-11-04T22:18:45.194Z,101302.53
2022-11-04T22:21:14.769Z,101316.41
2022-11-04T22:23:41.714Z,101319.25
2022-11-04T22:26:12.502Z,101318.09
2022-11-04T22:28:38.938Z,101316.44
2022-11-04T22:31:20.511Z,101307.31
2022-11-04T22:33:47.129Z,101317.41
2022-11-04T22:36:14.079Z,101327.72
2022-11-04T22:38:42.584Z,101318.72
2022-11-04T22:41:11.817Z,101313.84
2022-11-04T22:43:38.516Z,101328.69
2022-11-04T22:46:20.464Z,101311.25
2022-11-04T22:48:47.330Z,101315.38
2022-11-04T22:51:14.954Z,101311.06
2022-11-04T22:53:41.401Z,101316.94
2022-11-04T22:56:09.565Z,101314.59
2022-11-04T22:58:36.462Z,101302.81
2022-11-04T23:01:09.619Z,101305.00
2022-11-04T23:03:36.077Z,101304.69
2022-11-04T23:06:04.915Z,101313.84
2022-11-04T23:08:32.925Z,101312.38
2022-11-04T23:11:26.286Z,101297.28
2022-11-04T23:14:21.239Z,101311.47
2022-11-04T23:17:09.081Z,101313.66
2022-11-04T23:19:36.470Z,101313.31
2022-11-04T23:22:21.805Z,101283.41
2022-11-04T23:25:06.264Z,101320.66
2022-11-04T23:27:52.654Z,101320.00
2022-11-04T23:30:21.746Z,101321.66
2022-11-04T23:32:48.655Z,101321.84
2022-11-04T23:35:34.268Z,101320.84
2022-11-04T23:38:01.075Z,101325.00
2022-11-04T23:40:28.878Z,101321.50
2022-11-04T23:42:55.646Z,101320.34
2022-11-04T23:45:41.286Z,101327.69
2022-11-04T23:48:29.067Z,101329.34
2022-11-04T23:51:18.921Z,101335.31
2022-11-04T23:54:04.353Z,101341.47
2022-11-04T23:56:49.830Z,101344.13
2022-11-04T23:59:37.064Z,101336.31
